Seaexpressii — HO4619 — position and weather

sailwx.info

Track history (hours):
 
Tides and Currents Weather Stations Pressure Air Temp Water Temp Dewpoint Dewpoint Depression Visibility Wind Speed Wind Dir Waves Ship Positions

Seaexpressii

Last reported at 2016-Sep-30 06:33 UTC. Time now 2016-Sep-30 08:20 UTC.
Position N 26°04' W 080°08'.

Length 37 m; draft 2.2 m.

Type: Ship. MMSI: 356449000.

Date/timePositionNaut miles runAvg speedWind from/ knotsBaromVisibWave heightAir tempDewpointWater temp
2016-Sep-30 06:33N 26°04' W 080°08'0 0.0
2016-Sep-30 03:33N 26°04' W 080°08'0 0.0
2016-Sep-30 02:33N 26°04' W 080°08'0 0.0
2016-Sep-29 23:34N 26°04' W 080°08'0 0.0
2016-Sep-29 21:33N 26°04' W 080°08'0 0.0
2016-Sep-29 20:33N 26°04' W 080°08'0 0.0
2016-Sep-29 19:34N 26°04' W 080°08'0 0.0
2016-Sep-29 16:33N 26°04' W 080°08'0 0.0
2016-Sep-29 15:33N 26°04' W 080°08'0 0.0
2016-Sep-29 14:34N 26°04' W 080°08'0 0.0
2016-Sep-29 13:33N 26°04' W 080°08'19 3.8
2016-Sep-29 08:34N 26°00' W 079°47'6 6.4
2016-Sep-29 07:33N 25°59' W 079°40'  
2016-Sep-25 00:31N 25°57' W 079°36'16 8.1
2016-Sep-24 22:33N 26°02' W 079°53'8 7.9
2016-Sep-24 21:33N 26°04' W 080°01'6 3.1
2016-Sep-24 19:33N 26°04' W 080°08'0 0.0
2016-Sep-24 18:33N 26°04' W 080°08'0 0.0
2016-Sep-24 17:33N 26°04' W 080°08'0 0.0
2016-Sep-24 16:33N 26°04' W 080°08'0 0.0
2016-Sep-24 14:33N 26°04' W 080°08'0 0.0
2016-Sep-24 12:34N 26°04' W 080°08'0 0.0
2016-Sep-24 10:33N 26°04' W 080°08'0 0.0
2016-Sep-24 09:33N 26°04' W 080°08'0 0.0
2016-Sep-24 03:33N 26°04' W 080°08'0 0.0
2016-Sep-24 02:33N 26°04' W 080°08'0 0.0
2016-Sep-24 01:33N 26°04' W 080°08'0 0.0
2016-Sep-24 00:33N 26°04' W 080°08'0 0.0
2016-Sep-23 19:33N 26°04' W 080°08'0 0.0
2016-Sep-23 17:33N 26°04' W 080°08'0 0.0
2016-Sep-23 16:33N 26°04' W 080°08'0 0.0
2016-Sep-23 15:33N 26°04' W 080°08'0 0.0
2016-Sep-23 13:33N 26°04' W 080°08'13 3.3
2016-Sep-23 09:33N 25°58' W 079°54'9 0.3
2016-Sep-22 04:34N 26°04' W 080°03'5 4.8
2016-Sep-22 03:33N 26°04' W 080°08'0 0.0
2016-Sep-22 00:33N 26°04' W 080°08'0 0.0
2016-Sep-21 23:33N 26°04' W 080°08'0 0.0
2016-Sep-21 22:33N 26°04' W 080°08'0 0.1
2016-Sep-21 19:33N 26°04' W 080°07'27 9.2
2016-Sep-21 16:33N 25°58' W 079°38'  
Track history (hours):
 
Tides and Currents Weather Stations Pressure Air Temp Water Temp Dewpoint Dewpoint Depression Visibility Wind Speed Wind Dir Waves Ship Positions

Seaexpressii

Last reported at 2016-Sep-30 06:33 UTC. Time now 2016-Sep-30 08:20 UTC.
Position N 26°04' W 080°08'.

Length 37 m; draft 2.2 m.

Type: Ship. MMSI: 356449000.

Date/timePositionNaut miles runAvg speedWind from/ knotsBaromVisibWave heightAir tempDewpointWater temp
2016-Sep-30 06:33N 26°04' W 080°08'0 0.0
2016-Sep-30 03:33N 26°04' W 080°08'0 0.0
2016-Sep-30 02:33N 26°04' W 080°08'0 0.0
2016-Sep-29 23:34N 26°04' W 080°08'0 0.0
2016-Sep-29 21:33N 26°04' W 080°08'0 0.0
2016-Sep-29 20:33N 26°04' W 080°08'0 0.0
2016-Sep-29 19:34N 26°04' W 080°08'0 0.0
2016-Sep-29 16:33N 26°04' W 080°08'0 0.0
2016-Sep-29 15:33N 26°04' W 080°08'0 0.0
2016-Sep-29 14:34N 26°04' W 080°08'0 0.0
2016-Sep-29 13:33N 26°04' W 080°08'19 3.8
2016-Sep-29 08:34N 26°00' W 079°47'6 6.4
2016-Sep-29 07:33N 25°59' W 079°40'  
2016-Sep-25 00:31N 25°57' W 079°36'16 8.1
2016-Sep-24 22:33N 26°02' W 079°53'8 7.9
2016-Sep-24 21:33N 26°04' W 080°01'6 3.1
2016-Sep-24 19:33N 26°04' W 080°08'0 0.0
2016-Sep-24 18:33N 26°04' W 080°08'0 0.0
2016-Sep-24 17:33N 26°04' W 080°08'0 0.0
2016-Sep-24 16:33N 26°04' W 080°08'0 0.0
2016-Sep-24 14:33N 26°04' W 080°08'0 0.0
2016-Sep-24 12:34N 26°04' W 080°08'0 0.0
2016-Sep-24 10:33N 26°04' W 080°08'0 0.0
2016-Sep-24 09:33N 26°04' W 080°08'0 0.0
2016-Sep-24 03:33N 26°04' W 080°08'0 0.0
2016-Sep-24 02:33N 26°04' W 080°08'0 0.0
2016-Sep-24 01:33N 26°04' W 080°08'0 0.0
2016-Sep-24 00:33N 26°04' W 080°08'0 0.0
2016-Sep-23 19:33N 26°04' W 080°08'0 0.0
2016-Sep-23 17:33N 26°04' W 080°08'0 0.0
2016-Sep-23 16:33N 26°04' W 080°08'0 0.0
2016-Sep-23 15:33N 26°04' W 080°08'0 0.0
2016-Sep-23 13:33N 26°04' W 080°08'13 3.3
2016-Sep-23 09:33N 25°58' W 079°54'9 0.3
2016-Sep-22 04:34N 26°04' W 080°03'5 4.8
2016-Sep-22 03:33N 26°04' W 080°08'0 0.0
2016-Sep-22 00:33N 26°04' W 080°08'0 0.0
2016-Sep-21 23:33N 26°04' W 080°08'0 0.0
2016-Sep-21 22:33N 26°04' W 080°08'0 0.1
2016-Sep-21 19:33N 26°04' W 080°07'27 9.2
2016-Sep-21 16:33N 25°58' W 079°38'  

Dump ship's entire track history